Terminal Aerodrome Forecast
Issued by NWS

Home | Current Version | Previous Version | Graphics & Text | Print | Product List | Glossary On
Versions: 1 2 3 4 5 6 7 8 9 10 11 12 13 14 15 16 17 18 19 20 21
035
FTUS43 KMPX 182337
TAFAXN
TAF
KAXN 182337Z 1900/1924 20004KT P6SM BKN200
     FM190900 13006KT P6SM BKN120
     FM191500 13009KT P6SM BKN080
     FM192100 13012G19KT P6SM BKN120=

USA.gov is the U.S. government's official web portal to all federal, state and local government web resources and services.